createdAt,value
2019-05-17T00:00:08.467Z,11.17
2019-05-17T00:02:37.644Z,11.63
2019-05-17T00:05:07.001Z,10.57
2019-05-17T00:07:36.907Z,13.00
2019-05-17T00:10:06.750Z,12.50
2019-05-17T00:12:36.886Z,11.80
2019-05-17T00:15:07.098Z,11.00
2019-05-17T00:17:37.808Z,8.47
2019-05-17T00:20:07.167Z,8.67
2019-05-17T00:22:36.607Z,7.57
2019-05-17T00:25:07.413Z,5.50
2019-05-17T00:27:36.742Z,5.63
2019-05-17T00:30:06.715Z,5.10
2019-05-17T00:32:36.934Z,5.50
2019-05-17T00:35:07.327Z,4.90
2019-05-17T00:37:37.408Z,4.67
2019-05-17T00:40:07.726Z,3.80
2019-05-17T00:42:37.225Z,3.70
2019-05-17T00:45:06.829Z,3.17
2019-05-17T00:47:37.527Z,3.17
2019-05-17T00:50:08.696Z,3.23
2019-05-17T00:52:37.319Z,3.10
2019-05-17T00:55:06.943Z,3.10
2019-05-17T00:57:36.903Z,3.13
2019-05-17T01:00:08.268Z,3.13
2019-05-17T01:02:36.339Z,2.80
2019-05-17T01:05:06.316Z,3.20
2019-05-17T01:07:37.379Z,3.10
2019-05-17T01:10:08.217Z,2.97
2019-05-17T01:12:36.901Z,2.87
2019-05-17T01:15:07.501Z,2.70
2019-05-17T01:17:36.561Z,2.90
2019-05-17T01:20:07.094Z,3.13
2019-05-17T01:22:36.741Z,3.03
2019-05-17T01:25:06.354Z,2.83
2019-05-17T01:27:34.607Z,3.50
2019-05-17T01:30:02.931Z,3.50
2019-05-17T01:32:31.075Z,3.83
2019-05-17T01:34:59.246Z,3.23
2019-05-17T01:37:28.043Z,4.03
2019-05-17T01:39:57.393Z,3.93
2019-05-17T01:42:26.526Z,3.80
2019-05-17T01:44:56.756Z,4.03
2019-05-17T01:47:27.120Z,3.87
2019-05-17T01:49:57.445Z,3.37
2019-05-17T01:52:27.337Z,3.90
2019-05-17T01:54:57.149Z,4.23
2019-05-17T01:57:27.415Z,3.87
2019-05-17T01:59:57.163Z,4.37
2019-05-17T02:02:31.133Z,4.17
2019-05-17T02:04:59.527Z,4.83
2019-05-17T02:07:28.085Z,4.13
2019-05-17T02:09:56.872Z,4.20
2019-05-17T02:12:26.778Z,4.83
2019-05-17T02:14:57.528Z,3.87
2019-05-17T02:17:26.593Z,4.80
2019-05-17T02:19:57.157Z,4.60
2019-05-17T02:22:27.225Z,5.03
2019-05-17T02:24:56.759Z,5.03
2019-05-17T02:27:31.631Z,4.77
2019-05-17T02:29:55.664Z,4.90
2019-05-17T02:32:23.877Z,5.40
2019-05-17T02:34:53.064Z,5.07
2019-05-17T02:37:23.297Z,4.93
2019-05-17T02:40:02.059Z,5.60
2019-05-17T02:42:22.465Z,5.00
2019-05-17T02:44:53.125Z,5.40
2019-05-17T02:47:23.107Z,6.10
2019-05-17T02:49:52.526Z,5.47
2019-05-17T02:52:22.934Z,6.33
2019-05-17T02:54:52.680Z,5.80
2019-05-17T02:57:23.334Z,6.07
2019-05-17T02:59:52.564Z,5.97
2019-05-17T03:02:27.485Z,5.30
2019-05-17T03:04:52.703Z,5.23
2019-05-17T03:07:23.204Z,5.43
2019-05-17T03:09:54.999Z,6.20
2019-05-17T03:12:23.638Z,6.00
2019-05-17T03:14:52.927Z,6.40
2019-05-17T03:17:22.937Z,6.57
2019-05-17T03:19:52.986Z,7.00
2019-05-17T03:22:23.128Z,6.03
2019-05-17T03:24:53.380Z,6.23
2019-05-17T03:27:23.262Z,6.73
2019-05-17T03:29:53.764Z,5.93
2019-05-17T03:32:26.422Z,7.00
2019-05-17T03:34:56.201Z,6.63
2019-05-17T03:37:30.092Z,5.83
2019-05-17T03:39:53.627Z,6.20
2019-05-17T03:42:22.617Z,6.03
2019-05-17T03:44:53.055Z,6.80
2019-05-17T03:47:22.691Z,6.43
2019-05-17T03:49:53.114Z,5.93
2019-05-17T03:52:22.457Z,6.67
2019-05-17T03:54:53.070Z,7.27
2019-05-17T03:57:23.932Z,6.40
2019-05-17T03:59:53.745Z,7.17
2019-05-17T04:02:23.044Z,6.30
2019-05-17T04:04:52.933Z,6.73
2019-05-17T04:07:23.588Z,6.03
2019-05-17T04:09:53.246Z,5.90
2019-05-17T04:12:23.202Z,6.03
2019-05-17T04:14:53.393Z,5.90
2019-05-17T04:17:22.798Z,6.20
2019-05-17T04:19:53.361Z,5.93
2019-05-17T04:22:23.953Z,5.30
2019-05-17T04:24:52.805Z,6.03
2019-05-17T04:27:22.900Z,5.07
2019-05-17T04:29:53.349Z,5.97
2019-05-17T04:32:23.358Z,5.90
2019-05-17T04:34:52.541Z,6.13
2019-05-17T04:37:22.775Z,6.77
2019-05-17T04:39:52.480Z,6.50
2019-05-17T04:42:22.704Z,6.77
2019-05-17T04:44:52.693Z,6.57
2019-05-17T04:47:22.941Z,6.37
2019-05-17T04:49:53.544Z,6.20
2019-05-17T04:52:22.749Z,5.57
2019-05-17T04:54:53.777Z,6.33
2019-05-17T04:57:23.199Z,6.47
2019-05-17T04:59:52.434Z,6.60
2019-05-17T05:02:23.507Z,6.17
2019-05-17T05:04:53.336Z,6.53
2019-05-17T05:07:22.651Z,6.23
2019-05-17T05:09:52.340Z,6.20
2019-05-17T05:12:22.836Z,6.63
2019-05-17T05:14:52.312Z,6.17
2019-05-17T05:17:22.137Z,5.73
2019-05-17T05:19:53.030Z,6.73
2019-05-17T05:22:22.503Z,7.33
2019-05-17T05:24:52.500Z,7.57
2019-05-17T05:27:22.302Z,7.47
2019-05-17T05:29:52.148Z,6.50
2019-05-17T05:32:22.053Z,7.40
2019-05-17T05:34:51.966Z,6.33
2019-05-17T05:37:23.159Z,6.40
2019-05-17T05:39:54.108Z,6.10
2019-05-17T05:42:22.292Z,6.40
2019-05-17T05:44:52.236Z,6.33
2019-05-17T05:47:22.224Z,6.33
2019-05-17T05:49:52.067Z,5.90
2019-05-17T05:52:21.910Z,6.43
2019-05-17T05:54:52.129Z,5.60
2019-05-17T05:57:21.875Z,5.90
2019-05-17T05:59:51.805Z,6.57
2019-05-17T06:02:21.736Z,6.30
2019-05-17T06:04:51.819Z,6.53
2019-05-17T06:07:21.630Z,6.13
2019-05-17T06:09:51.754Z,6.50
2019-05-17T06:12:26.995Z,6.37
2019-05-17T06:14:52.398Z,5.90
2019-05-17T06:17:21.754Z,5.57
2019-05-17T06:19:51.681Z,5.77
2019-05-17T06:22:21.994Z,6.30
2019-05-17T06:24:52.026Z,6.30
2019-05-17T06:27:21.513Z,6.53
2019-05-17T06:29:51.501Z,5.93
2019-05-17T06:32:22.786Z,6.13
2019-05-17T06:34:51.590Z,5.43
2019-05-17T06:37:22.424Z,5.30
2019-05-17T06:39:52.647Z,6.37
2019-05-17T06:42:22.959Z,6.30
2019-05-17T06:44:52.389Z,6.57
2019-05-17T06:47:22.580Z,5.80
2019-05-17T06:49:53.551Z,5.73
2019-05-17T06:52:22.626Z,5.97
2019-05-17T06:54:52.504Z,5.67
2019-05-17T06:57:23.204Z,5.90
2019-05-17T06:59:51.417Z,6.10
2019-05-17T07:02:19.791Z,6.87
2019-05-17T07:04:48.144Z,6.80
2019-05-17T07:07:25.490Z,6.70
2019-05-17T07:09:54.780Z,8.27
2019-05-17T07:12:23.074Z,7.63
2019-05-17T07:14:51.272Z,7.53
2019-05-17T07:17:19.754Z,7.67
2019-05-17T07:19:50.572Z,7.17
2019-05-17T07:22:20.991Z,8.00
2019-05-17T07:24:50.267Z,8.17
2019-05-17T07:27:19.354Z,8.53
2019-05-17T07:29:49.614Z,8.30
2019-05-17T07:32:19.384Z,7.27
2019-05-17T07:34:50.159Z,8.40
2019-05-17T07:37:19.554Z,8.23
2019-05-17T07:39:58.626Z,7.53
2019-05-17T07:42:19.572Z,7.80
2019-05-17T07:44:49.711Z,8.10
2019-05-17T07:47:20.133Z,6.67
2019-05-17T07:49:49.498Z,6.93
2019-05-17T07:52:20.482Z,7.83
2019-05-17T07:54:50.692Z,7.27
2019-05-17T07:57:20.689Z,6.90
2019-05-17T07:59:50.805Z,7.13
2019-05-17T08:02:19.821Z,7.17
2019-05-17T08:04:50.125Z,6.87
2019-05-17T08:07:19.643Z,6.93
2019-05-17T08:09:50.456Z,6.70
2019-05-17T08:12:19.957Z,7.57
2019-05-17T08:14:50.249Z,7.30
2019-05-17T08:17:19.809Z,6.93
2019-05-17T08:19:49.830Z,6.97
2019-05-17T08:22:20.227Z,7.00
2019-05-17T08:24:49.384Z,7.33
2019-05-17T08:27:20.129Z,7.50
2019-05-17T08:29:49.917Z,7.43
2019-05-17T08:32:20.716Z,6.10
2019-05-17T08:34:51.650Z,6.70
2019-05-17T08:37:20.457Z,6.33
2019-05-17T08:39:50.535Z,5.67
2019-05-17T08:42:20.435Z,6.43
2019-05-17T08:44:49.794Z,5.13
2019-05-17T08:47:20.969Z,5.93
2019-05-17T08:49:49.806Z,5.57
2019-05-17T08:52:20.000Z,5.20
2019-05-17T08:54:49.599Z,5.83
2019-05-17T08:57:20.396Z,5.23
2019-05-17T08:59:49.727Z,6.27
2019-05-17T09:02:19.896Z,6.53
2019-05-17T09:04:49.797Z,5.73
2019-05-17T09:07:20.449Z,7.93
2019-05-17T09:09:50.148Z,6.60
2019-05-17T09:12:20.614Z,6.60
2019-05-17T09:14:49.639Z,6.30
2019-05-17T09:17:19.390Z,6.27
2019-05-17T09:19:50.480Z,5.60
2019-05-17T09:22:19.822Z,5.57
2019-05-17T09:24:50.000Z,5.63
2019-05-17T09:27:19.860Z,5.80
2019-05-17T09:29:49.746Z,6.07
2019-05-17T09:32:20.045Z,5.37
2019-05-17T09:34:49.843Z,5.30
2019-05-17T09:37:21.730Z,5.10
2019-05-17T09:39:49.271Z,4.70
2019-05-17T09:42:17.903Z,5.33
2019-05-17T09:44:46.282Z,4.43
2019-05-17T09:47:14.482Z,4.83
2019-05-17T09:49:42.772Z,5.43
2019-05-17T09:52:10.909Z,4.00
2019-05-17T09:54:45.159Z,3.93
2019-05-17T09:57:09.907Z,4.30
2019-05-17T09:59:40.323Z,3.93
2019-05-17T10:02:10.270Z,4.60
2019-05-17T10:04:39.483Z,4.10
2019-05-17T10:07:10.178Z,3.83
2019-05-17T10:09:39.971Z,3.77
2019-05-17T10:12:09.536Z,3.57
2019-05-17T10:14:38.328Z,3.90
2019-05-17T10:17:06.859Z,4.00
2019-05-17T10:19:35.037Z,4.13
2019-05-17T10:22:03.519Z,3.97
2019-05-17T10:24:37.896Z,4.00
2019-05-17T10:27:01.887Z,4.37
2019-05-17T10:29:30.286Z,3.90
2019-05-17T10:31:59.831Z,4.10
2019-05-17T10:34:29.425Z,3.50
2019-05-17T10:36:57.832Z,3.37
2019-05-17T10:39:26.814Z,3.10
2019-05-17T10:41:54.957Z,3.30
2019-05-17T10:44:23.615Z,3.60
2019-05-17T10:46:52.141Z,3.53
2019-05-17T10:49:20.334Z,3.80
2019-05-17T10:51:49.401Z,4.03
2019-05-17T10:54:20.421Z,3.40
2019-05-17T10:56:50.194Z,4.40
2019-05-17T10:59:20.332Z,4.07
2019-05-17T11:01:50.162Z,3.87
2019-05-17T11:04:19.785Z,3.70
2019-05-17T11:06:50.024Z,3.60
2019-05-17T11:09:20.519Z,4.13
2019-05-17T11:11:48.359Z,3.90
2019-05-17T11:14:17.250Z,3.87
2019-05-17T11:16:45.753Z,3.97
2019-05-17T11:19:14.043Z,3.73
2019-05-17T11:21:42.246Z,4.03
2019-05-17T11:24:10.427Z,4.37
2019-05-17T11:26:38.568Z,4.13
2019-05-17T11:29:07.536Z,4.10
2019-05-17T11:31:35.686Z,3.80
2019-05-17T11:34:03.951Z,4.17
2019-05-17T11:36:32.185Z,4.20
2019-05-17T11:39:01.002Z,4.47
2019-05-17T11:41:29.252Z,4.67
2019-05-17T11:43:57.433Z,4.27
2019-05-17T11:46:35.642Z,4.43
2019-05-17T11:48:58.316Z,4.27
2019-05-17T11:51:27.480Z,4.90
2019-05-17T11:53:55.948Z,5.00
2019-05-17T11:56:24.224Z,5.03
2019-05-17T11:58:52.410Z,4.50
2019-05-17T12:01:20.922Z,4.77
2019-05-17T12:03:49.480Z,5.20
2019-05-17T12:06:17.748Z,4.67
2019-05-17T12:08:47.885Z,5.10
2019-05-17T12:11:16.235Z,5.13
2019-05-17T12:13:44.457Z,5.20
2019-05-17T12:16:12.682Z,4.57
2019-05-17T12:18:41.143Z,5.03
2019-05-17T12:21:10.018Z,5.30
2019-05-17T12:23:38.726Z,6.17
2019-05-17T12:26:07.261Z,5.77
2019-05-17T12:28:35.501Z,5.77
2019-05-17T12:31:03.773Z,5.90
2019-05-17T12:33:32.512Z,5.97
2019-05-17T12:36:00.733Z,6.15
2019-05-17T12:38:28.884Z,7.75
2019-05-17T12:40:57.374Z,6.87
2019-05-17T12:43:25.524Z,6.40
2019-05-17T12:46:00.478Z,6.13
2019-05-17T12:48:24.618Z,5.03
2019-05-17T12:50:52.797Z,5.83
2019-05-17T12:53:20.959Z,5.80
2019-05-17T12:55:49.515Z,5.43
2019-05-17T12:58:18.422Z,5.90
2019-05-17T13:00:46.745Z,5.27
2019-05-17T13:03:14.923Z,5.67
2019-05-17T13:05:43.119Z,5.80
2019-05-17T13:08:11.462Z,6.73
2019-05-17T13:10:40.083Z,6.87
2019-05-17T13:13:09.711Z,6.50
2019-05-17T13:15:38.079Z,6.10
2019-05-17T13:18:06.462Z,6.47
2019-05-17T13:20:34.748Z,6.97
2019-05-17T13:23:03.542Z,7.10
2019-05-17T13:25:32.518Z,5.80
2019-05-17T13:28:00.769Z,5.50
2019-05-17T13:30:29.475Z,5.43
2019-05-17T13:32:58.291Z,6.33
2019-05-17T13:35:26.498Z,5.77
2019-05-17T13:37:54.695Z,4.77
2019-05-17T13:40:22.935Z,5.40
2019-05-17T13:42:51.338Z,6.17
2019-05-17T13:45:19.494Z,5.53
2019-05-17T13:47:48.000Z,5.63
2019-05-17T13:50:19.399Z,5.90
2019-05-17T13:52:47.534Z,5.07
2019-05-17T13:55:16.630Z,5.97
2019-05-17T13:57:45.724Z,6.00
2019-05-17T14:00:14.065Z,6.40
2019-05-17T14:02:42.280Z,6.47
2019-05-17T14:05:11.014Z,6.20
2019-05-17T14:07:39.385Z,6.77
2019-05-17T14:10:24.623Z,7.47
2019-05-17T14:12:40.022Z,6.93
2019-05-17T14:15:09.617Z,6.13
2019-05-17T14:17:37.921Z,7.27
2019-05-17T14:20:06.397Z,8.43
2019-05-17T14:22:36.050Z,13.90
2019-05-17T14:25:04.868Z,8.50
2019-05-17T14:27:33.293Z,8.63
2019-05-17T14:30:01.434Z,8.23
2019-05-17T14:32:29.713Z,8.30
2019-05-17T14:34:58.152Z,8.70
2019-05-17T14:37:26.577Z,9.17
2019-05-17T14:39:55.360Z,8.70
2019-05-17T14:42:23.548Z,9.07
2019-05-17T14:44:51.687Z,9.30
2019-05-17T14:47:20.188Z,8.90
2019-05-17T14:49:51.100Z,8.00
2019-05-17T14:52:19.022Z,8.67
2019-05-17T14:54:47.621Z,7.93
2019-05-17T14:57:15.986Z,9.23
2019-05-17T14:59:44.372Z,9.03
2019-05-17T15:02:12.571Z,9.63
2019-05-17T15:04:40.772Z,8.83
2019-05-17T15:07:11.426Z,8.60
2019-05-17T15:09:40.061Z,8.67
2019-05-17T15:12:08.438Z,8.23
2019-05-17T15:14:36.575Z,8.10
2019-05-17T15:17:05.043Z,8.17
2019-05-17T15:19:33.576Z,8.27
2019-05-17T15:22:02.136Z,7.13
2019-05-17T15:24:30.528Z,7.80
2019-05-17T15:27:05.540Z,7.63
2019-05-17T15:29:29.653Z,8.33
2019-05-17T15:31:58.118Z,7.30
2019-05-17T15:34:26.275Z,8.63
2019-05-17T15:36:54.443Z,8.17
2019-05-17T15:39:22.601Z,7.67
2019-05-17T15:41:50.982Z,7.63
2019-05-17T15:44:19.259Z,6.77
2019-05-17T15:46:47.412Z,7.93
2019-05-17T15:49:15.649Z,7.50
2019-05-17T15:51:43.882Z,7.30
2019-05-17T15:54:12.092Z,7.20
2019-05-17T15:56:40.716Z,9.20
2019-05-17T15:59:08.902Z,7.50
2019-05-17T16:01:37.220Z,7.50
2019-05-17T16:04:05.383Z,6.90
2019-05-17T16:06:33.766Z,7.23
2019-05-17T16:09:04.114Z,7.50
2019-05-17T16:11:32.309Z,7.63
2019-05-17T16:14:00.927Z,7.23
2019-05-17T16:16:29.548Z,7.67
2019-05-17T16:18:57.976Z,6.90
2019-05-17T16:21:26.393Z,7.77
2019-05-17T16:23:54.821Z,6.77
2019-05-17T16:26:23.040Z,7.00
2019-05-17T16:28:51.377Z,6.33
2019-05-17T16:31:20.045Z,7.73
2019-05-17T16:33:50.868Z,6.57
2019-05-17T16:36:18.577Z,7.03
2019-05-17T16:38:46.745Z,7.67
2019-05-17T16:41:14.874Z,6.40
2019-05-17T16:43:43.741Z,6.63
2019-05-17T16:46:11.975Z,6.80
2019-05-17T16:48:40.148Z,7.07
2019-05-17T16:51:11.272Z,6.57
2019-05-17T16:53:39.436Z,7.30
2019-05-17T16:56:09.241Z,7.93
2019-05-17T16:58:38.718Z,7.50
2019-05-17T17:01:06.971Z,7.47
2019-05-17T17:03:44.301Z,7.10
2019-05-17T17:06:05.415Z,6.40
2019-05-17T17:08:34.941Z,7.00
2019-05-17T17:11:03.700Z,6.83
2019-05-17T17:13:33.564Z,7.83
2019-05-17T17:16:02.022Z,7.47
2019-05-17T17:18:30.477Z,8.17
2019-05-17T17:20:58.722Z,7.00
2019-05-17T17:23:26.903Z,6.90
2019-05-17T17:25:55.051Z,7.00
2019-05-17T17:28:25.463Z,6.63
2019-05-17T17:30:54.197Z,6.97
2019-05-17T17:33:23.207Z,7.23
2019-05-17T17:35:52.405Z,7.17
2019-05-17T17:38:20.599Z,6.97
2019-05-17T17:40:48.775Z,7.03
2019-05-17T17:43:16.987Z,7.50
2019-05-17T17:45:46.765Z,7.30
2019-05-17T17:48:17.631Z,6.43
2019-05-17T17:50:47.698Z,7.27
2019-05-17T17:53:17.411Z,6.43
2019-05-17T17:55:47.028Z,7.20
2019-05-17T17:58:17.313Z,7.10
2019-05-17T18:00:45.954Z,6.63
2019-05-17T18:03:14.134Z,11.77
2019-05-17T18:05:42.537Z,7.10
2019-05-17T18:08:10.935Z,8.90
2019-05-17T18:10:39.116Z,7.23
2019-05-17T18:13:07.725Z,7.47
2019-05-17T18:15:43.700Z,6.80
2019-05-17T18:18:12.646Z,6.73
2019-05-17T18:20:41.306Z,8.77
2019-05-17T18:23:10.366Z,8.00
2019-05-17T18:25:39.222Z,11.33
2019-05-17T18:28:08.562Z,11.47
2019-05-17T18:30:37.128Z,12.17
2019-05-17T18:33:05.741Z,12.33
2019-05-17T18:35:34.855Z,11.03
2019-05-17T18:38:03.475Z,8.63
2019-05-17T18:40:31.771Z,9.10
2019-05-17T18:42:59.972Z,9.53
2019-05-17T18:45:28.687Z,8.90
2019-05-17T18:47:56.834Z,8.47
2019-05-17T18:50:25.897Z,8.63
2019-05-17T18:52:54.058Z,10.40
2019-05-17T18:55:22.376Z,8.43
2019-05-17T18:57:50.572Z,9.30
2019-05-17T19:00:19.023Z,8.97
2019-05-17T19:02:47.255Z,9.03
2019-05-17T19:05:15.739Z,8.23
2019-05-17T19:07:43.982Z,8.77
2019-05-17T19:10:14.186Z,8.83
2019-05-17T19:12:42.645Z,8.60
2019-05-17T19:15:11.427Z,8.37
2019-05-17T19:17:39.610Z,8.30
2019-05-17T19:20:09.299Z,9.73
2019-05-17T19:22:37.534Z,8.83
2019-05-17T19:25:08.136Z,8.97
2019-05-17T19:27:36.617Z,8.70
2019-05-17T19:30:06.901Z,8.07
2019-05-17T19:32:35.191Z,8.60
2019-05-17T19:35:03.658Z,9.97
2019-05-17T19:37:31.811Z,8.73
2019-05-17T19:40:00.505Z,9.37
2019-05-17T19:42:28.992Z,10.00
2019-05-17T19:44:59.440Z,9.97
2019-05-17T19:47:27.259Z,8.13
2019-05-17T19:49:55.432Z,9.33
2019-05-17T19:52:23.566Z,8.43
2019-05-17T19:54:51.749Z,9.53
2019-05-17T19:57:19.992Z,8.53
2019-05-17T19:59:48.561Z,11.10
2019-05-17T20:02:16.709Z,9.57
2019-05-17T20:04:45.591Z,9.63
2019-05-17T20:07:13.729Z,9.97
2019-05-17T20:09:41.988Z,10.10
2019-05-17T20:12:10.229Z,10.27
2019-05-17T20:14:38.731Z,9.97
2019-05-17T20:17:06.869Z,10.20
2019-05-17T20:19:35.255Z,10.93
2019-05-17T20:22:04.052Z,14.70
2019-05-17T20:24:32.357Z,10.23
2019-05-17T20:27:00.713Z,13.93
2019-05-17T20:29:29.277Z,33.67
2019-05-17T20:31:57.422Z,13.17
2019-05-17T20:34:25.803Z,12.67
2019-05-17T20:36:54.353Z,11.13
2019-05-17T20:39:22.524Z,12.53
2019-05-17T20:41:50.803Z,11.93
2019-05-17T20:44:19.063Z,11.00
2019-05-17T20:46:47.389Z,17.47
2019-05-17T20:49:15.645Z,13.33
2019-05-17T20:51:43.875Z,12.20
2019-05-17T20:54:12.162Z,11.43
2019-05-17T20:56:40.442Z,11.97
2019-05-17T20:59:09.082Z,12.03
2019-05-17T21:01:37.351Z,12.13
2019-05-17T21:04:05.571Z,12.23
2019-05-17T21:06:34.376Z,14.07
2019-05-17T21:09:04.810Z,13.67
2019-05-17T21:11:33.469Z,14.23
2019-05-17T21:14:02.122Z,13.83
2019-05-17T21:16:30.835Z,13.03
2019-05-17T21:18:59.101Z,19.93
2019-05-17T21:21:27.345Z,13.93
2019-05-17T21:23:55.842Z,14.07
2019-05-17T21:26:24.124Z,13.03
2019-05-17T21:28:52.552Z,12.83
2019-05-17T21:31:20.742Z,13.47
2019-05-17T21:33:49.226Z,13.63
2019-05-17T21:36:18.097Z,12.53
2019-05-17T21:38:46.321Z,13.13
2019-05-17T21:41:14.549Z,13.20
2019-05-17T21:43:43.137Z,12.47
2019-05-17T21:46:11.312Z,13.73
2019-05-17T21:48:39.637Z,13.63
2019-05-17T21:51:07.859Z,14.33
2019-05-17T21:53:36.353Z,13.10
2019-05-17T21:56:04.586Z,13.10
2019-05-17T21:58:33.170Z,12.70
2019-05-17T22:01:24.433Z,13.83
2019-05-17T22:03:53.920Z,13.53
2019-05-17T22:06:22.957Z,13.43
2019-05-17T22:08:51.431Z,13.13
2019-05-17T22:11:19.636Z,13.07
2019-05-17T22:13:47.823Z,13.73
2019-05-17T22:16:19.595Z,13.90
2019-05-17T22:18:46.246Z,13.93
2019-05-17T22:21:14.673Z,13.80
2019-05-17T22:23:42.897Z,14.90
2019-05-17T22:26:11.035Z,13.47
2019-05-17T22:28:39.206Z,13.13
2019-05-17T22:31:07.422Z,14.07
2019-05-17T22:33:35.750Z,13.30
2019-05-17T22:36:04.958Z,14.43
2019-05-17T22:38:33.144Z,15.20
2019-05-17T22:41:01.377Z,14.33
2019-05-17T22:43:29.647Z,13.70
2019-05-17T22:45:57.866Z,14.93
2019-05-17T22:48:26.103Z,14.53
2019-05-17T22:50:54.881Z,14.30
2019-05-17T22:53:23.064Z,13.67
2019-05-17T22:55:51.199Z,12.63
2019-05-17T22:58:19.577Z,15.33
2019-05-17T23:00:47.975Z,14.57
2019-05-17T23:03:16.760Z,15.50
2019-05-17T23:05:44.988Z,14.57
2019-05-17T23:08:13.597Z,13.80
2019-05-17T23:10:41.739Z,14.53
2019-05-17T23:13:10.279Z,15.13
2019-05-17T23:15:57.748Z,16.97
2019-05-17T23:18:26.364Z,15.57
2019-05-17T23:20:54.532Z,18.03
2019-05-17T23:23:23.524Z,15.90
2019-05-17T23:25:51.662Z,15.73
2019-05-17T23:28:21.039Z,15.47
2019-05-17T23:30:49.167Z,16.60
2019-05-17T23:33:17.442Z,16.07
2019-05-17T23:35:45.633Z,15.20
2019-05-17T23:38:14.102Z,14.83
2019-05-17T23:40:42.230Z,14.90
2019-05-17T23:43:10.516Z,15.70
2019-05-17T23:45:38.644Z,16.30
2019-05-17T23:48:06.970Z,15.93
2019-05-17T23:50:35.795Z,14.90
2019-05-17T23:53:04.595Z,16.50
2019-05-17T23:55:32.740Z,16.67
2019-05-17T23:58:01.072Z,15.33
